sensor_id;sensor_type;location;lat;lon;timestamp;temperature;humidity
7564;DHT22;3823;53.586;10.040;2023-02-01T00:00:34;6.10;99.90
7564;DHT22;3823;53.586;10.040;2023-02-01T00:03:00;6.10;99.90
7564;DHT22;3823;53.586;10.040;2023-02-01T00:05:25;6.10;99.90
7564;DHT22;3823;53.586;10.040;2023-02-01T00:07:51;6.00;99.90
7564;DHT22;3823;53.586;10.040;2023-02-01T00:10:17;6.10;99.90
7564;DHT22;3823;53.586;10.040;2023-02-01T00:12:43;6.10;99.90
7564;DHT22;3823;53.586;10.040;2023-02-01T00:15:09;6.10;99.90
7564;DHT22;3823;53.586;10.040;2023-02-01T00:17:35;6.10;99.90
7564;DHT22;3823;53.586;10.040;2023-02-01T00:20:01;6.10;99.90
7564;DHT22;3823;53.586;10.040;2023-02-01T00:22:27;6.10;99.90
7564;DHT22;3823;53.586;10.040;2023-02-01T00:24:53;6.10;99.90
7564;DHT22;3823;53.586;10.040;2023-02-01T00:27:18;6.00;99.90
7564;DHT22;3823;53.586;10.040;2023-02-01T00:29:46;6.00;99.90
7564;DHT22;3823;53.586;10.040;2023-02-01T00:32:12;6.00;99.90
7564;DHT22;3823;53.586;10.040;2023-02-01T00:34:38;6.10;99.90
7564;DHT22;3823;53.586;10.040;2023-02-01T00:37:03;6.10;99.90
7564;DHT22;3823;53.586;10.040;2023-02-01T00:39:29;6.10;99.90
7564;DHT22;3823;53.586;10.040;2023-02-01T00:41:54;6.00;99.90
7564;DHT22;3823;53.586;10.040;2023-02-01T00:44:20;6.10;99.90
7564;DHT22;3823;53.586;10.040;2023-02-01T00:46:46;6.10;99.90
7564;DHT22;3823;53.586;10.040;2023-02-01T00:49:11;6.10;99.90
7564;DHT22;3823;53.586;10.040;2023-02-01T00:51:37;6.10;99.90
7564;DHT22;3823;53.586;10.040;2023-02-01T00:54:02;6.10;99.90
7564;DHT22;3823;53.586;10.040;2023-02-01T00:56:28;6.10;99.90
7564;DHT22;3823;53.586;10.040;2023-02-01T00:58:54;6.10;99.90
7564;DHT22;3823;53.586;10.040;2023-02-01T01:01:25;6.20;99.90
7564;DHT22;3823;53.586;10.040;2023-02-01T01:03:53;6.20;99.90
7564;DHT22;3823;53.586;10.040;2023-02-01T01:06:21;6.20;99.90
7564;DHT22;3823;53.586;10.040;2023-02-01T01:08:50;6.20;99.90
7564;DHT22;3823;53.586;10.040;2023-02-01T01:11:18;6.30;99.90
7564;DHT22;3823;53.586;10.040;2023-02-01T01:13:47;6.30;99.90
7564;DHT22;3823;53.586;10.040;2023-02-01T01:16:13;6.20;99.90
7564;DHT22;3823;53.586;10.040;2023-02-01T01:18:38;6.20;99.90
7564;DHT22;3823;53.586;10.040;2023-02-01T01:21:05;6.30;99.90
7564;DHT22;3823;53.586;10.040;2023-02-01T01:23:31;6.20;99.90
7564;DHT22;3823;53.586;10.040;2023-02-01T01:25:57;6.20;99.90
7564;DHT22;3823;53.586;10.040;2023-02-01T01:28:23;6.20;99.90
7564;DHT22;3823;53.586;10.040;2023-02-01T01:30:48;6.20;99.90
7564;DHT22;3823;53.586;10.040;2023-02-01T01:33:14;6.20;99.90
7564;DHT22;3823;53.586;10.040;2023-02-01T01:35:39;6.20;99.90
7564;DHT22;3823;53.586;10.040;2023-02-01T01:38:05;6.30;99.90
7564;DHT22;3823;53.586;10.040;2023-02-01T01:40:31;6.20;99.90
7564;DHT22;3823;53.586;10.040;2023-02-01T01:42:57;6.20;99.90
7564;DHT22;3823;53.586;10.040;2023-02-01T01:47:56;6.20;99.90
7564;DHT22;3823;53.586;10.040;2023-02-01T01:50:30;6.20;99.90
7564;DHT22;3823;53.586;10.040;2023-02-01T01:52:59;6.20;99.90
7564;DHT22;3823;53.586;10.040;2023-02-01T01:55:27;6.20;99.90
7564;DHT22;3823;53.586;10.040;2023-02-01T01:58:08;6.20;99.90
7564;DHT22;3823;53.586;10.040;2023-02-01T02:00:35;6.30;99.90
7564;DHT22;3823;53.586;10.040;2023-02-01T02:03:20;6.30;99.90
7564;DHT22;3823;53.586;10.040;2023-02-01T02:05:49;6.20;99.90
7564;DHT22;3823;53.586;10.040;2023-02-01T02:08:18;6.20;99.90
7564;DHT22;3823;53.586;10.040;2023-02-01T02:10:48;6.20;99.90
7564;DHT22;3823;53.586;10.040;2023-02-01T02:13:38;6.20;99.90
7564;DHT22;3823;53.586;10.040;2023-02-01T02:16:09;6.30;99.90
7564;DHT22;3823;53.586;10.040;2023-02-01T02:24:31;6.30;99.90
7564;DHT22;3823;53.586;10.040;2023-02-01T02:27:05;6.20;99.90
7564;DHT22;3823;53.586;10.040;2023-02-01T02:32:27;6.20;99.90
7564;DHT22;3823;53.586;10.040;2023-02-01T02:35:53;6.20;99.90
7564;DHT22;3823;53.586;10.040;2023-02-01T02:38:12;6.20;99.90
7564;DHT22;3823;53.586;10.040;2023-02-01T02:41:10;6.30;99.90
7564;DHT22;3823;53.586;10.040;2023-02-01T02:43:59;6.20;99.90
7564;DHT22;3823;53.586;10.040;2023-02-01T02:46:48;6.10;99.90
7564;DHT22;3823;53.586;10.040;2023-02-01T02:49:39;6.10;99.90
7564;DHT22;3823;53.586;10.040;2023-02-01T02:52:09;6.10;99.90
7564;DHT22;3823;53.586;10.040;2023-02-01T02:54:57;6.10;99.90
7564;DHT22;3823;53.586;10.040;2023-02-01T02:57:30;6.10;99.90
7564;DHT22;3823;53.586;10.040;2023-02-01T03:00:18;6.00;99.90
7564;DHT22;3823;53.586;10.040;2023-02-01T03:03:04;5.90;99.90
7564;DHT22;3823;53.586;10.040;2023-02-01T03:05:49;5.90;99.90
7564;DHT22;3823;53.586;10.040;2023-02-01T03:08:26;5.90;99.90
7564;DHT22;3823;53.586;10.040;2023-02-01T03:11:06;6.00;99.90
7564;DHT22;3823;53.586;10.040;2023-02-01T03:13:54;5.90;1.00
7564;DHT22;3823;53.586;10.040;2023-02-01T03:16:33;5.90;1.00
7564;DHT22;3823;53.586;10.040;2023-02-01T03:19:21;5.80;1.00
7564;DHT22;3823;53.586;10.040;2023-02-01T03:22:03;5.80;1.00
7564;DHT22;3823;53.586;10.040;2023-02-01T03:24:37;5.80;1.00
7564;DHT22;3823;53.586;10.040;2023-02-01T03:27:23;5.80;1.00
7564;DHT22;3823;53.586;10.040;2023-02-01T03:30:03;5.70;1.00
7564;DHT22;3823;53.586;10.040;2023-02-01T03:32:31;5.70;1.00
7564;DHT22;3823;53.586;10.040;2023-02-01T03:35:18;5.80;1.00
7564;DHT22;3823;53.586;10.040;2023-02-01T03:37:47;5.80;1.00
7564;DHT22;3823;53.586;10.040;2023-02-01T03:40:13;5.80;1.00
7564;DHT22;3823;53.586;10.040;2023-02-01T03:42:44;5.70;1.00
7564;DHT22;3823;53.586;10.040;2023-02-01T03:45:16;5.80;1.00
7564;DHT22;3823;53.586;10.040;2023-02-01T03:47:49;5.70;1.00
7564;DHT22;3823;53.586;10.040;2023-02-01T03:50:18;5.70;1.00
7564;DHT22;3823;53.586;10.040;2023-02-01T03:52:48;5.60;1.00
7564;DHT22;3823;53.586;10.040;2023-02-01T03:55:19;5.60;1.00
7564;DHT22;3823;53.586;10.040;2023-02-01T04:00:27;5.60;1.00
7564;DHT22;3823;53.586;10.040;2023-02-01T04:02:53;5.50;1.00
7564;DHT22;3823;53.586;10.040;2023-02-01T04:05:19;5.50;1.00
7564;DHT22;3823;53.586;10.040;2023-02-01T04:07:45;5.50;1.00
7564;DHT22;3823;53.586;10.040;2023-02-01T04:10:11;5.50;1.00
7564;DHT22;3823;53.586;10.040;2023-02-01T04:12:37;5.50;1.00
7564;DHT22;3823;53.586;10.040;2023-02-01T04:15:03;5.50;1.00
7564;DHT22;3823;53.586;10.040;2023-02-01T04:17:29;5.50;1.00
7564;DHT22;3823;53.586;10.040;2023-02-01T04:19:55;5.50;1.00
7564;DHT22;3823;53.586;10.040;2023-02-01T04:22:21;5.40;1.00
7564;DHT22;3823;53.586;10.040;2023-02-01T04:24:46;5.40;1.00
7564;DHT22;3823;53.586;10.040;2023-02-01T04:27:12;5.40;1.00
7564;DHT22;3823;53.586;10.040;2023-02-01T04:29:38;5.40;1.00
7564;DHT22;3823;53.586;10.040;2023-02-01T04:32:04;5.40;1.00
7564;DHT22;3823;53.586;10.040;2023-02-01T04:34:30;5.40;1.00
7564;DHT22;3823;53.586;10.040;2023-02-01T04:36:55;5.40;1.00
7564;DHT22;3823;53.586;10.040;2023-02-01T04:39:21;5.40;1.00
7564;DHT22;3823;53.586;10.040;2023-02-01T04:41:46;5.40;1.00
7564;DHT22;3823;53.586;10.040;2023-02-01T04:44:17;5.40;1.00
7564;DHT22;3823;53.586;10.040;2023-02-01T04:46:43;5.40;1.00
7564;DHT22;3823;53.586;10.040;2023-02-01T04:49:10;5.40;1.00
7564;DHT22;3823;53.586;10.040;2023-02-01T04:51:36;5.40;1.00
7564;DHT22;3823;53.586;10.040;2023-02-01T04:54:01;5.40;1.00
7564;DHT22;3823;53.586;10.040;2023-02-01T04:56:27;5.40;1.00
7564;DHT22;3823;53.586;10.040;2023-02-01T04:58:52;5.40;1.00
7564;DHT22;3823;53.586;10.040;2023-02-01T05:01:18;5.30;1.00
7564;DHT22;3823;53.586;10.040;2023-02-01T05:03:44;5.30;1.00
7564;DHT22;3823;53.586;10.040;2023-02-01T05:06:09;5.30;1.00
7564;DHT22;3823;53.586;10.040;2023-02-01T05:08:35;5.30;1.00
7564;DHT22;3823;53.586;10.040;2023-02-01T05:11:01;5.30;1.00
7564;DHT22;3823;53.586;10.040;2023-02-01T05:13:30;5.30;1.00
7564;DHT22;3823;53.586;10.040;2023-02-01T05:16:14;5.30;1.00
7564;DHT22;3823;53.586;10.040;2023-02-01T05:18:40;5.20;1.00
7564;DHT22;3823;53.586;10.040;2023-02-01T05:21:05;5.10;1.00
7564;DHT22;3823;53.586;10.040;2023-02-01T05:23:31;4.90;1.00
7564;DHT22;3823;53.586;10.040;2023-02-01T05:26:00;4.80;1.00
7564;DHT22;3823;53.586;10.040;2023-02-01T05:28:27;4.70;1.00
7564;DHT22;3823;53.586;10.040;2023-02-01T05:30:53;4.70;1.00
7564;DHT22;3823;53.586;10.040;2023-02-01T05:33:19;4.60;1.00
7564;DHT22;3823;53.586;10.040;2023-02-01T05:35:45;4.50;1.00
7564;DHT22;3823;53.586;10.040;2023-02-01T05:38:10;4.50;1.00
7564;DHT22;3823;53.586;10.040;2023-02-01T05:40:36;4.40;1.00
7564;DHT22;3823;53.586;10.040;2023-02-01T05:43:02;4.40;1.00
7564;DHT22;3823;53.586;10.040;2023-02-01T05:45:27;4.40;1.00
7564;DHT22;3823;53.586;10.040;2023-02-01T05:47:53;4.40;1.00
7564;DHT22;3823;53.586;10.040;2023-02-01T05:50:18;4.40;1.00
7564;DHT22;3823;53.586;10.040;2023-02-01T05:52:44;4.40;1.00
7564;DHT22;3823;53.586;10.040;2023-02-01T05:55:09;4.40;1.00
7564;DHT22;3823;53.586;10.040;2023-02-01T05:57:35;4.50;1.00
7564;DHT22;3823;53.586;10.040;2023-02-01T06:00:01;4.50;1.00
7564;DHT22;3823;53.586;10.040;2023-02-01T06:02:27;4.40;1.00
7564;DHT22;3823;53.586;10.040;2023-02-01T06:04:52;4.30;1.00
7564;DHT22;3823;53.586;10.040;2023-02-01T06:07:18;4.30;1.00
7564;DHT22;3823;53.586;10.040;2023-02-01T06:09:44;4.10;1.00
7564;DHT22;3823;53.586;10.040;2023-02-01T06:12:09;4.10;1.00
7564;DHT22;3823;53.586;10.040;2023-02-01T06:14:35;4.10;1.00
7564;DHT22;3823;53.586;10.040;2023-02-01T06:17:00;4.20;1.00
7564;DHT22;3823;53.586;10.040;2023-02-01T06:19:26;4.20;1.00
7564;DHT22;3823;53.586;10.040;2023-02-01T06:21:51;4.20;1.00
7564;DHT22;3823;53.586;10.040;2023-02-01T06:24:17;4.20;1.00
7564;DHT22;3823;53.586;10.040;2023-02-01T06:26:43;4.20;1.00
7564;DHT22;3823;53.586;10.040;2023-02-01T06:29:12;4.30;1.00
7564;DHT22;3823;53.586;10.040;2023-02-01T06:31:38;4.30;1.00
7564;DHT22;3823;53.586;10.040;2023-02-01T06:34:03;4.30;1.00
7564;DHT22;3823;53.586;10.040;2023-02-01T06:36:29;4.30;1.00
7564;DHT22;3823;53.586;10.040;2023-02-01T06:38:55;4.40;1.00
7564;DHT22;3823;53.586;10.040;2023-02-01T06:41:22;4.50;1.00
7564;DHT22;3823;53.586;10.040;2023-02-01T06:43:48;4.50;1.00
7564;DHT22;3823;53.586;10.040;2023-02-01T06:46:14;4.60;1.00
7564;DHT22;3823;53.586;10.040;2023-02-01T06:48:40;4.60;1.00
7564;DHT22;3823;53.586;10.040;2023-02-01T06:51:06;4.60;1.00
7564;DHT22;3823;53.586;10.040;2023-02-01T06:53:32;4.70;1.00
7564;DHT22;3823;53.586;10.040;2023-02-01T06:56:00;4.80;1.00
7564;DHT22;3823;53.586;10.040;2023-02-01T06:58:30;4.80;1.00
7564;DHT22;3823;53.586;10.040;2023-02-01T07:00:56;4.80;1.00
7564;DHT22;3823;53.586;10.040;2023-02-01T07:03:21;4.80;1.00
7564;DHT22;3823;53.586;10.040;2023-02-01T07:05:47;4.80;1.00
7564;DHT22;3823;53.586;10.040;2023-02-01T07:08:12;4.90;1.00
7564;DHT22;3823;53.586;10.040;2023-02-01T07:10:38;4.90;1.00
7564;DHT22;3823;53.586;10.040;2023-02-01T07:13:04;4.90;1.00
7564;DHT22;3823;53.586;10.040;2023-02-01T07:15:30;4.90;1.00
7564;DHT22;3823;53.586;10.040;2023-02-01T07:17:56;4.80;1.00
7564;DHT22;3823;53.586;10.040;2023-02-01T07:23:09;4.90;1.00
7564;DHT22;3823;53.586;10.040;2023-02-01T07:25:35;4.90;1.00
7564;DHT22;3823;53.586;10.040;2023-02-01T07:28:01;5.00;1.00
7564;DHT22;3823;53.586;10.040;2023-02-01T07:30:26;5.00;1.00
7564;DHT22;3823;53.586;10.040;2023-02-01T07:32:52;5.00;1.00
7564;DHT22;3823;53.586;10.040;2023-02-01T07:35:17;5.00;1.00
7564;DHT22;3823;53.586;10.040;2023-02-01T07:37:43;5.10;1.00
7564;DHT22;3823;53.586;10.040;2023-02-01T07:40:09;5.10;1.00
7564;DHT22;3823;53.586;10.040;2023-02-01T07:42:35;5.20;1.00
7564;DHT22;3823;53.586;10.040;2023-02-01T07:45:00;5.10;1.00
7564;DHT22;3823;53.586;10.040;2023-02-01T07:47:27;5.10;1.00
7564;DHT22;3823;53.586;10.040;2023-02-01T07:49:53;5.10;1.00
7564;DHT22;3823;53.586;10.040;2023-02-01T07:52:18;5.20;1.00
7564;DHT22;3823;53.586;10.040;2023-02-01T07:54:44;5.10;1.00
7564;DHT22;3823;53.586;10.040;2023-02-01T07:57:09;5.20;1.00
7564;DHT22;3823;53.586;10.040;2023-02-01T07:59:37;5.30;1.00
7564;DHT22;3823;53.586;10.040;2023-02-01T08:02:22;5.30;1.00
7564;DHT22;3823;53.586;10.040;2023-02-01T08:04:48;5.40;1.00
7564;DHT22;3823;53.586;10.040;2023-02-01T08:07:14;5.40;1.00
7564;DHT22;3823;53.586;10.040;2023-02-01T08:09:39;5.40;1.00
7564;DHT22;3823;53.586;10.040;2023-02-01T08:12:05;5.40;1.00
7564;DHT22;3823;53.586;10.040;2023-02-01T08:14:31;5.50;1.00
7564;DHT22;3823;53.586;10.040;2023-02-01T08:16:56;5.60;1.00
7564;DHT22;3823;53.586;10.040;2023-02-01T08:19:21;5.70;1.00
7564;DHT22;3823;53.586;10.040;2023-02-01T08:21:47;5.70;1.00
7564;DHT22;3823;53.586;10.040;2023-02-01T08:24:14;5.80;1.00
7564;DHT22;3823;53.586;10.040;2023-02-01T08:26:40;5.80;1.00
7564;DHT22;3823;53.586;10.040;2023-02-01T08:29:06;5.80;1.00
7564;DHT22;3823;53.586;10.040;2023-02-01T08:31:32;5.80;1.00
7564;DHT22;3823;53.586;10.040;2023-02-01T08:33:59;5.80;1.00
7564;DHT22;3823;53.586;10.040;2023-02-01T08:36:28;5.90;1.00
7564;DHT22;3823;53.586;10.040;2023-02-01T08:38:54;6.00;1.00
7564;DHT22;3823;53.586;10.040;2023-02-01T08:41:22;6.00;1.00
7564;DHT22;3823;53.586;10.040;2023-02-01T08:43:48;6.10;1.00
7564;DHT22;3823;53.586;10.040;2023-02-01T08:46:14;6.10;99.90
7564;DHT22;3823;53.586;10.040;2023-02-01T08:48:40;6.00;99.90
7564;DHT22;3823;53.586;10.040;2023-02-01T08:51:08;6.00;99.90
7564;DHT22;3823;53.586;10.040;2023-02-01T08:53:35;6.00;99.90
7564;DHT22;3823;53.586;10.040;2023-02-01T08:56:01;6.00;99.90
7564;DHT22;3823;53.586;10.040;2023-02-01T08:58:27;5.90;99.90
7564;DHT22;3823;53.586;10.040;2023-02-01T09:00:52;5.90;99.90
7564;DHT22;3823;53.586;10.040;2023-02-01T09:03:18;5.90;99.90
7564;DHT22;3823;53.586;10.040;2023-02-01T09:05:44;5.90;1.00
7564;DHT22;3823;53.586;10.040;2023-02-01T09:08:11;6.00;1.00
7564;DHT22;3823;53.586;10.040;2023-02-01T09:10:39;6.00;1.00
7564;DHT22;3823;53.586;10.040;2023-02-01T09:13:05;6.10;1.00
7564;DHT22;3823;53.586;10.040;2023-02-01T09:15:30;6.20;99.90
7564;DHT22;3823;53.586;10.040;2023-02-01T09:17:56;6.30;99.90
7564;DHT22;3823;53.586;10.040;2023-02-01T09:20:21;6.20;99.90
7564;DHT22;3823;53.586;10.040;2023-02-01T09:22:54;6.20;99.90
7564;DHT22;3823;53.586;10.040;2023-02-01T09:25:19;6.30;99.90
7564;DHT22;3823;53.586;10.040;2023-02-01T09:27:45;6.50;99.90
7564;DHT22;3823;53.586;10.040;2023-02-01T09:30:11;6.90;99.90
7564;DHT22;3823;53.586;10.040;2023-02-01T09:32:37;7.30;99.90
7564;DHT22;3823;53.586;10.040;2023-02-01T09:35:02;7.60;99.90
7564;DHT22;3823;53.586;10.040;2023-02-01T09:37:28;7.60;99.90
7564;DHT22;3823;53.586;10.040;2023-02-01T09:39:53;7.60;99.90
7564;DHT22;3823;53.586;10.040;2023-02-01T09:47:56;7.40;99.90
7564;DHT22;3823;53.586;10.040;2023-02-01T09:50:34;7.20;99.90
7564;DHT22;3823;53.586;10.040;2023-02-01T09:53:30;7.10;99.90
7564;DHT22;3823;53.586;10.040;2023-02-01T09:56:21;7.10;99.90
7564;DHT22;3823;53.586;10.040;2023-02-01T09:58:58;7.00;99.90
7564;DHT22;3823;53.586;10.040;2023-02-01T10:01:26;7.00;99.90
7564;DHT22;3823;53.586;10.040;2023-02-01T10:04:13;7.00;99.90
7564;DHT22;3823;53.586;10.040;2023-02-01T10:06:41;7.20;99.90
7564;DHT22;3823;53.586;10.040;2023-02-01T10:10:03;7.40;99.90
7564;DHT22;3823;53.586;10.040;2023-02-01T10:18:00;7.50;99.90
7564;DHT22;3823;53.586;10.040;2023-02-01T10:20:38;7.40;99.90
7564;DHT22;3823;53.586;10.040;2023-02-01T10:26:19;7.30;99.90
7564;DHT22;3823;53.586;10.040;2023-02-01T10:28:51;7.30;99.90
7564;DHT22;3823;53.586;10.040;2023-02-01T10:31:18;7.20;99.90
7564;DHT22;3823;53.586;10.040;2023-02-01T10:33:50;7.30;99.90
7564;DHT22;3823;53.586;10.040;2023-02-01T10:36:36;7.20;99.90
7564;DHT22;3823;53.586;10.040;2023-02-01T10:39:05;7.10;99.90
7564;DHT22;3823;53.586;10.040;2023-02-01T10:41:35;7.00;99.90
7564;DHT22;3823;53.586;10.040;2023-02-01T10:44:04;6.90;99.90
7564;DHT22;3823;53.586;10.040;2023-02-01T10:46:33;6.90;99.90
7564;DHT22;3823;53.586;10.040;2023-02-01T10:49:02;6.70;99.90
7564;DHT22;3823;53.586;10.040;2023-02-01T10:51:36;6.50;99.90
7564;DHT22;3823;53.586;10.040;2023-02-01T10:54:14;6.50;1.00
7564;DHT22;3823;53.586;10.040;2023-02-01T10:56:44;6.40;1.00
7564;DHT22;3823;53.586;10.040;2023-02-01T10:59:19;6.40;1.00
7564;DHT22;3823;53.586;10.040;2023-02-01T11:01:49;6.40;1.00
7564;DHT22;3823;53.586;10.040;2023-02-01T11:04:20;6.40;1.00
7564;DHT22;3823;53.586;10.040;2023-02-01T11:06:52;6.40;1.00
7564;DHT22;3823;53.586;10.040;2023-02-01T11:09:20;6.40;1.00
7564;DHT22;3823;53.586;10.040;2023-02-01T11:16:56;6.20;1.00
7564;DHT22;3823;53.586;10.040;2023-02-01T11:19:22;6.30;1.00
7564;DHT22;3823;53.586;10.040;2023-02-01T11:21:51;6.30;1.00
7564;DHT22;3823;53.586;10.040;2023-02-01T11:24:32;6.30;1.00
7564;DHT22;3823;53.586;10.040;2023-02-01T11:27:00;6.30;1.00
7564;DHT22;3823;53.586;10.040;2023-02-01T11:29:37;6.30;1.00
7564;DHT22;3823;53.586;10.040;2023-02-01T11:32:03;6.40;1.00
7564;DHT22;3823;53.586;10.040;2023-02-01T11:34:41;6.40;1.00
7564;DHT22;3823;53.586;10.040;2023-02-01T11:37:20;6.50;1.00
7564;DHT22;3823;53.586;10.040;2023-02-01T11:40:01;6.50;1.00
7564;DHT22;3823;53.586;10.040;2023-02-01T11:42:27;6.40;1.00
7564;DHT22;3823;53.586;10.040;2023-02-01T11:45:20;6.50;1.00
7564;DHT22;3823;53.586;10.040;2023-02-01T11:47:46;6.60;1.00
7564;DHT22;3823;53.586;10.040;2023-02-01T11:50:22;6.60;1.00
7564;DHT22;3823;53.586;10.040;2023-02-01T11:59:06;6.60;1.00
7564;DHT22;3823;53.586;10.040;2023-02-01T12:07:20;6.50;99.90
7564;DHT22;3823;53.586;10.040;2023-02-01T12:09:58;6.50;99.90
7564;DHT22;3823;53.586;10.040;2023-02-01T12:12:45;6.40;99.90
7564;DHT22;3823;53.586;10.040;2023-02-01T12:15:27;6.40;99.90
7564;DHT22;3823;53.586;10.040;2023-02-01T12:21:12;6.30;99.90
7564;DHT22;3823;53.586;10.040;2023-02-01T12:26:53;6.20;1.00
7564;DHT22;3823;53.586;10.040;2023-02-01T12:29:47;6.20;1.00
7564;DHT22;3823;53.586;10.040;2023-02-01T12:38:05;6.00;1.00
7564;DHT22;3823;53.586;10.040;2023-02-01T12:43:58;6.00;1.00
7564;DHT22;3823;53.586;10.040;2023-02-01T12:46:27;6.00;1.00
7564;DHT22;3823;53.586;10.040;2023-02-01T12:49:05;5.80;1.00
7564;DHT22;3823;53.586;10.040;2023-02-01T12:51:39;5.80;1.00
7564;DHT22;3823;53.586;10.040;2023-02-01T12:54:23;5.70;1.00
7564;DHT22;3823;53.586;10.040;2023-02-01T12:56:59;5.60;1.00
7564;DHT22;3823;53.586;10.040;2023-02-01T12:59:28;5.60;1.00
7564;DHT22;3823;53.586;10.040;2023-02-01T13:02:10;5.50;1.00
7564;DHT22;3823;53.586;10.040;2023-02-01T13:07:43;5.50;1.00
7564;DHT22;3823;53.586;10.040;2023-02-01T13:10:31;5.50;1.00
7564;DHT22;3823;53.586;10.040;2023-02-01T13:13:18;5.50;1.00
7564;DHT22;3823;53.586;10.040;2023-02-01T13:15:55;5.50;1.00
7564;DHT22;3823;53.586;10.040;2023-02-01T13:18:26;5.50;1.00
7564;DHT22;3823;53.586;10.040;2023-02-01T13:21:10;5.50;1.00
7564;DHT22;3823;53.586;10.040;2023-02-01T13:23:39;5.40;1.00
7564;DHT22;3823;53.586;10.040;2023-02-01T13:26:05;5.50;1.00
7564;DHT22;3823;53.586;10.040;2023-02-01T13:37:02;6.10;99.90
7564;DHT22;3823;53.586;10.040;2023-02-01T13:42:51;6.20;99.90
7564;DHT22;3823;53.586;10.040;2023-02-01T13:45:30;6.20;99.90
7564;DHT22;3823;53.586;10.040;2023-02-01T13:47:59;6.10;99.90
7564;DHT22;3823;53.586;10.040;2023-02-01T13:50:32;6.10;99.90
7564;DHT22;3823;53.586;10.040;2023-02-01T13:53:04;6.20;99.90
7564;DHT22;3823;53.586;10.040;2023-02-01T13:55:55;6.30;99.90
7564;DHT22;3823;53.586;10.040;2023-02-01T13:58:36;6.20;99.90
7564;DHT22;3823;53.586;10.040;2023-02-01T14:03:59;6.10;99.90
7564;DHT22;3823;53.586;10.040;2023-02-01T14:11:49;6.00;99.90
7564;DHT22;3823;53.586;10.040;2023-02-01T14:19:24;5.50;99.90
7564;DHT22;3823;53.586;10.040;2023-02-01T14:21:56;5.40;1.00
7564;DHT22;3823;53.586;10.040;2023-02-01T14:24:36;5.40;1.00
7564;DHT22;3823;53.586;10.040;2023-02-01T14:29:38;5.30;1.00
7564;DHT22;3823;53.586;10.040;2023-02-01T14:32:18;5.40;1.00
7564;DHT22;3823;53.586;10.040;2023-02-01T14:44:54;5.30;1.00
7564;DHT22;3823;53.586;10.040;2023-02-01T14:49:54;5.30;1.00
7564;DHT22;3823;53.586;10.040;2023-02-01T14:52:23;5.30;1.00
7564;DHT22;3823;53.586;10.040;2023-02-01T14:54:56;5.40;1.00
7564;DHT22;3823;53.586;10.040;2023-02-01T14:57:27;5.50;1.00
7564;DHT22;3823;53.586;10.040;2023-02-01T15:00:03;5.50;1.00
7564;DHT22;3823;53.586;10.040;2023-02-01T15:02:33;5.60;1.00
7564;DHT22;3823;53.586;10.040;2023-02-01T15:05:00;5.60;1.00
7564;DHT22;3823;53.586;10.040;2023-02-01T15:07:26;5.60;1.00
7564;DHT22;3823;53.586;10.040;2023-02-01T15:09:54;5.60;1.00
7564;DHT22;3823;53.586;10.040;2023-02-01T15:12:27;5.60;1.00
7564;DHT22;3823;53.586;10.040;2023-02-01T15:17:37;5.60;1.00
7564;DHT22;3823;53.586;10.040;2023-02-01T15:20:04;5.60;1.00
7564;DHT22;3823;53.586;10.040;2023-02-01T15:22:36;5.60;1.00
7564;DHT22;3823;53.586;10.040;2023-02-01T15:25:02;5.50;1.00
7564;DHT22;3823;53.586;10.040;2023-02-01T15:27:29;5.50;1.00
7564;DHT22;3823;53.586;10.040;2023-02-01T15:30:06;5.50;1.00
7564;DHT22;3823;53.586;10.040;2023-02-01T15:32:34;5.50;99.90
7564;DHT22;3823;53.586;10.040;2023-02-01T15:35:01;5.50;99.90
7564;DHT22;3823;53.586;10.040;2023-02-01T15:37:28;5.50;99.90
7564;DHT22;3823;53.586;10.040;2023-02-01T15:42:35;5.40;99.90
7564;DHT22;3823;53.586;10.040;2023-02-01T15:45:03;5.40;1.00
7564;DHT22;3823;53.586;10.040;2023-02-01T15:47:30;5.50;99.90
7564;DHT22;3823;53.586;10.040;2023-02-01T15:49:59;5.50;1.00
7564;DHT22;3823;53.586;10.040;2023-02-01T15:52:27;5.50;1.00
7564;DHT22;3823;53.586;10.040;2023-02-01T15:54:57;5.50;1.00
7564;DHT22;3823;53.586;10.040;2023-02-01T15:57:29;5.60;1.00
7564;DHT22;3823;53.586;10.040;2023-02-01T15:59:58;5.50;1.00
7564;DHT22;3823;53.586;10.040;2023-02-01T16:05:00;5.50;1.00
7564;DHT22;3823;53.586;10.040;2023-02-01T16:07:28;5.50;1.00
7564;DHT22;3823;53.586;10.040;2023-02-01T16:10:00;5.60;1.00
7564;DHT22;3823;53.586;10.040;2023-02-01T16:12:46;5.70;1.00
7564;DHT22;3823;53.586;10.040;2023-02-01T16:15:18;5.70;1.00
7564;DHT22;3823;53.586;10.040;2023-02-01T16:17:44;5.60;99.90
7564;DHT22;3823;53.586;10.040;2023-02-01T16:20:11;5.70;1.00
7564;DHT22;3823;53.586;10.040;2023-02-01T16:22:37;5.70;1.00
7564;DHT22;3823;53.586;10.040;2023-02-01T16:25:03;5.70;1.00
7564;DHT22;3823;53.586;10.040;2023-02-01T16:27:31;5.60;1.00
7564;DHT22;3823;53.586;10.040;2023-02-01T16:29:56;5.70;1.00
7564;DHT22;3823;53.586;10.040;2023-02-01T16:32:22;5.60;1.00
7564;DHT22;3823;53.586;10.040;2023-02-01T16:34:48;5.60;1.00
7564;DHT22;3823;53.586;10.040;2023-02-01T16:37:21;5.70;1.00
7564;DHT22;3823;53.586;10.040;2023-02-01T16:39:47;5.60;1.00
7564;DHT22;3823;53.586;10.040;2023-02-01T16:42:13;5.50;1.00
7564;DHT22;3823;53.586;10.040;2023-02-01T16:44:39;5.60;1.00
7564;DHT22;3823;53.586;10.040;2023-02-01T16:47:21;5.60;1.00
7564;DHT22;3823;53.586;10.040;2023-02-01T16:49:47;5.70;99.90
7564;DHT22;3823;53.586;10.040;2023-02-01T16:52:19;5.70;99.90
7564;DHT22;3823;53.586;10.040;2023-02-01T16:54:46;5.80;99.90
7564;DHT22;3823;53.586;10.040;2023-02-01T16:57:13;5.80;99.90
7564;DHT22;3823;53.586;10.040;2023-02-01T16:59:40;5.70;99.90
7564;DHT22;3823;53.586;10.040;2023-02-01T17:02:09;5.70;99.90
7564;DHT22;3823;53.586;10.040;2023-02-01T17:04:35;5.80;99.90
7564;DHT22;3823;53.586;10.040;2023-02-01T17:07:01;5.80;99.90
7564;DHT22;3823;53.586;10.040;2023-02-01T17:09:35;5.80;99.90
7564;DHT22;3823;53.586;10.040;2023-02-01T17:12:01;5.80;99.90
7564;DHT22;3823;53.586;10.040;2023-02-01T17:14:26;5.90;99.90
7564;DHT22;3823;53.586;10.040;2023-02-01T17:16:52;6.00;99.90
7564;DHT22;3823;53.586;10.040;2023-02-01T17:19:21;6.00;99.90
7564;DHT22;3823;53.586;10.040;2023-02-01T17:21:50;6.00;99.90
7564;DHT22;3823;53.586;10.040;2023-02-01T17:24:20;6.00;99.90
7564;DHT22;3823;53.586;10.040;2023-02-01T17:26:45;6.00;99.90
7564;DHT22;3823;53.586;10.040;2023-02-01T17:29:12;6.00;99.90
7564;DHT22;3823;53.586;10.040;2023-02-01T17:31:40;6.10;99.90
7564;DHT22;3823;53.586;10.040;2023-02-01T17:34:07;6.10;99.90
7564;DHT22;3823;53.586;10.040;2023-02-01T17:36:33;6.10;99.90
7564;DHT22;3823;53.586;10.040;2023-02-01T17:39:01;6.10;99.90
7564;DHT22;3823;53.586;10.040;2023-02-01T17:41:26;6.20;99.90
7564;DHT22;3823;53.586;10.040;2023-02-01T17:43:52;6.20;99.90
7564;DHT22;3823;53.586;10.040;2023-02-01T17:46:18;6.20;99.90
7564;DHT22;3823;53.586;10.040;2023-02-01T17:48:45;6.20;99.90
7564;DHT22;3823;53.586;10.040;2023-02-01T17:51:16;6.20;99.90
7564;DHT22;3823;53.586;10.040;2023-02-01T17:53:43;6.20;99.90
7564;DHT22;3823;53.586;10.040;2023-02-01T17:56:13;6.20;99.90
7564;DHT22;3823;53.586;10.040;2023-02-01T17:58:39;6.20;99.90
7564;DHT22;3823;53.586;10.040;2023-02-01T18:01:05;6.30;99.90
7564;DHT22;3823;53.586;10.040;2023-02-01T18:03:31;6.40;99.90
7564;DHT22;3823;53.586;10.040;2023-02-01T18:06:00;6.30;99.90
7564;DHT22;3823;53.586;10.040;2023-02-01T18:08:28;6.30;99.90
7564;DHT22;3823;53.586;10.040;2023-02-01T18:11:00;6.30;99.90
7564;DHT22;3823;53.586;10.040;2023-02-01T18:13:29;6.30;99.90
7564;DHT22;3823;53.586;10.040;2023-02-01T18:15:56;6.30;99.90
7564;DHT22;3823;53.586;10.040;2023-02-01T18:18:24;6.20;99.90
7564;DHT22;3823;53.586;10.040;2023-02-01T18:20:50;6.20;99.90